Time,TemperatureF,DewpointF,PressureIn,WindDirection,WindDirectionDegrees,WindSpeedMPH,WindSpeedGustMPH,Humidity,HourlyPrecipIn,Conditions,Clouds,dailyrainin,SoftwareType,DateUTC
2013-08-04 00:01:00,72.3,68.6,30.06,ESE,112,0.0,-999.0,88,0.00,,,0.00,open2300 v1.10,2013-08-04 05:01:00,
2013-08-04 00:09:00,72.1,68.7,30.06,ESE,112,0.0,-999.0,89,0.00,,,0.00,open2300 v1.10,2013-08-04 05:09:00,
2013-08-04 00:15:00,72.0,68.6,30.06,ESE,112,0.0,-999.0,89,0.00,,,0.00,open2300 v1.10,2013-08-04 05:15:00,
2013-08-04 00:24:00,71.8,68.4,30.06,ESE,112,0.0,-999.0,89,0.00,,,0.00,open2300 v1.10,2013-08-04 05:24:00,
2013-08-04 00:30:00,71.4,68.0,30.07,ESE,112,0.0,-999.0,89,0.00,,,0.00,open2300 v1.10,2013-08-04 05:30:00,
2013-08-04 00:38:00,71.4,68.0,30.07,ESE,112,0.0,-999.0,89,0.00,,,0.00,open2300 v1.10,2013-08-04 05:38:00,
2013-08-04 00:45:00,71.4,68.0,30.07,ESE,112,0.0,-999.0,89,0.00,,,0.00,open2300 v1.10,2013-08-04 05:45:00,
2013-08-04 00:54:00,71.2,67.8,30.07,ESE,112,0.0,-999.0,89,0.00,,,0.00,open2300 v1.10,2013-08-04 05:54:00,
2013-08-04 01:09:00,71.2,67.8,30.07,ESE,112,0.0,-999.0,89,0.00,,,0.00,open2300 v1.10,2013-08-04 06:09:00,
2013-08-04 01:15:00,70.9,67.5,30.07,ESE,112,0.0,-999.0,89,0.00,,,0.00,open2300 v1.10,2013-08-04 06:15:00,
2013-08-04 01:24:00,70.7,67.6,30.07,ESE,112,0.0,-999.0,90,0.00,,,0.00,open2300 v1.10,2013-08-04 06:24:00,
2013-08-04 01:30:00,70.5,67.5,30.07,ESE,112,0.0,-999.0,90,0.00,,,0.00,open2300 v1.10,2013-08-04 06:30:00,
2013-08-04 01:39:00,70.5,67.5,30.07,ESE,112,0.0,-999.0,90,0.00,,,0.00,open2300 v1.10,2013-08-04 06:39:00,
2013-08-04 01:44:00,70.3,67.3,30.06,ESE,112,0.0,-999.0,90,0.00,,,0.00,open2300 v1.10,2013-08-04 06:44:00,
2013-08-04 01:54:00,70.3,67.3,30.06,ESE,112,0.0,-999.0,90,0.00,,,0.00,open2300 v1.10,2013-08-04 06:54:00,
2013-08-04 02:04:00,70.3,67.3,30.06,ESE,112,0.0,-999.0,90,0.00,,,0.00,open2300 v1.10,2013-08-04 07:04:00,
2013-08-04 02:15:00,70.0,66.9,30.05,ESE,112,0.0,-999.0,90,0.00,,,0.00,open2300 v1.10,2013-08-04 07:15:00,
2013-08-04 02:24:00,69.8,66.7,30.05,ESE,112,0.0,-999.0,90,0.00,,,0.00,open2300 v1.10,2013-08-04 07:24:00,
2013-08-04 02:30:00,69.6,66.6,30.05,ESE,112,0.0,-999.0,90,0.00,,,0.00,open2300 v1.10,2013-08-04 07:30:00,
2013-08-04 02:38:00,69.6,66.6,30.05,ESE,112,0.0,-999.0,90,0.00,,,0.00,open2300 v1.10,2013-08-04 07:38:00,
2013-08-04 02:45:00,69.6,66.6,30.05,ESE,112,0.0,-999.0,90,0.00,,,0.00,open2300 v1.10,2013-08-04 07:45:00,
2013-08-04 02:54:00,69.4,66.4,30.05,ESE,112,0.0,-999.0,90,0.00,,,0.00,open2300 v1.10,2013-08-04 07:54:00,
2013-08-04 03:01:00,69.3,66.2,30.06,ESE,112,0.0,-999.0,90,0.00,,,0.00,open2300 v1.10,2013-08-04 08:01:00,
2013-08-04 03:09:00,69.1,66.0,30.06,ESE,112,0.0,-999.0,90,0.00,,,0.00,open2300 v1.10,2013-08-04 08:09:00,
2013-08-04 03:15:00,69.1,66.0,30.06,ESE,112,0.0,-999.0,90,0.00,,,0.00,open2300 v1.10,2013-08-04 08:15:00,
2013-08-04 03:24:00,69.1,66.0,30.05,ESE,112,0.0,-999.0,90,0.00,,,0.00,open2300 v1.10,2013-08-04 08:24:00,
2013-08-04 03:30:00,68.9,65.8,30.05,ESE,112,0.0,-999.0,90,0.00,,,0.00,open2300 v1.10,2013-08-04 08:30:00,
2013-08-04 03:39:00,68.7,65.7,30.05,ESE,112,0.0,-999.0,90,0.00,,,0.00,open2300 v1.10,2013-08-04 08:39:00,
2013-08-04 03:45:00,68.7,65.7,30.05,ESE,112,0.0,-999.0,90,0.00,,,0.00,open2300 v1.10,2013-08-04 08:45:00,
2013-08-04 03:54:00,68.7,65.7,30.05,ESE,112,0.0,-999.0,90,0.00,,,0.00,open2300 v1.10,2013-08-04 08:54:00,
2013-08-04 04:01:00,68.5,65.5,30.05,ESE,112,0.0,-999.0,90,0.00,,,0.00,open2300 v1.10,2013-08-04 09:01:00,
2013-08-04 04:08:00,68.4,65.3,30.05,ESE,112,0.0,-999.0,90,0.00,,,0.00,open2300 v1.10,2013-08-04 09:08:00,
2013-08-04 04:15:00,68.4,65.3,30.05,ESE,112,0.0,-999.0,90,0.00,,,0.00,open2300 v1.10,2013-08-04 09:15:00,
2013-08-04 04:24:00,68.4,65.3,30.05,ESE,112,0.0,-999.0,90,0.00,,,0.00,open2300 v1.10,2013-08-04 09:24:00,
2013-08-04 04:30:00,68.4,65.3,30.05,ESE,112,0.0,-999.0,90,0.00,,,0.00,open2300 v1.10,2013-08-04 09:30:00,
2013-08-04 04:39:00,68.4,65.6,30.05,ESE,112,0.0,-999.0,91,0.00,,,0.00,open2300 v1.10,2013-08-04 09:39:00,
2013-08-04 04:45:00,68.4,65.6,30.06,ESE,112,0.0,-999.0,91,0.00,,,0.00,open2300 v1.10,2013-08-04 09:45:00,
2013-08-04 04:54:00,68.4,65.6,30.06,ESE,112,0.0,-999.0,91,0.00,,,0.00,open2300 v1.10,2013-08-04 09:54:00,
2013-08-04 05:01:00,68.2,65.4,30.06,ESE,112,0.0,-999.0,91,0.00,,,0.00,open2300 v1.10,2013-08-04 10:01:00,
2013-08-04 05:09:00,68.2,65.4,30.07,ESE,112,0.0,-999.0,91,0.00,,,0.00,open2300 v1.10,2013-08-04 10:09:00,
2013-08-04 05:15:00,68.2,65.4,30.07,ESE,112,0.0,-999.0,91,0.00,,,0.00,open2300 v1.10,2013-08-04 10:15:00,
2013-08-04 05:23:00,68.4,65.6,30.07,ESE,112,0.0,-999.0,91,0.00,,,0.00,open2300 v1.10,2013-08-04 10:23:00,
2013-08-04 05:30:00,68.2,65.4,30.08,ESE,112,0.0,-999.0,91,0.00,,,0.00,open2300 v1.10,2013-08-04 10:30:00,
2013-08-04 05:39:00,68.2,65.4,30.08,ESE,112,0.0,-999.0,91,0.00,,,0.00,open2300 v1.10,2013-08-04 10:39:00,
2013-08-04 05:45:00,68.2,65.4,30.09,ESE,112,0.0,-999.0,91,0.00,,,0.00,open2300 v1.10,2013-08-04 10:45:00,
2013-08-04 05:53:00,67.8,65.1,30.09,ESE,112,0.0,-999.0,91,0.00,,,0.00,open2300 v1.10,2013-08-04 10:53:00,
2013-08-04 06:01:00,67.8,65.1,30.09,ESE,112,0.0,-999.0,91,0.00,,,0.00,open2300 v1.10,2013-08-04 11:01:00,
2013-08-04 06:09:00,67.8,65.1,30.09,ESE,112,0.0,-999.0,91,0.00,,,0.00,open2300 v1.10,2013-08-04 11:09:00,
2013-08-04 06:15:00,68.0,65.2,30.09,ESE,112,0.0,-999.0,91,0.00,,,0.00,open2300 v1.10,2013-08-04 11:15:00,
2013-08-04 06:24:00,68.2,65.4,30.09,ESE,112,0.0,-999.0,91,0.00,,,0.00,open2300 v1.10,2013-08-04 11:24:00,
2013-08-04 06:30:00,68.0,65.2,30.09,ESE,112,0.0,-999.0,91,0.00,,,0.00,open2300 v1.10,2013-08-04 11:30:00,
2013-08-04 06:38:00,68.2,65.4,30.09,ESE,112,0.0,-999.0,91,0.00,,,0.00,open2300 v1.10,2013-08-04 11:38:00,
2013-08-04 06:45:00,68.2,65.4,30.09,ESE,112,0.0,-999.0,91,0.00,,,0.00,open2300 v1.10,2013-08-04 11:45:00,
2013-08-04 06:54:00,68.2,65.7,30.09,ESE,112,0.0,-999.0,92,0.00,,,0.00,open2300 v1.10,2013-08-04 11:54:00,
2013-08-04 07:09:00,68.5,66.1,30.09,ESE,112,0.0,-999.0,92,0.00,,,0.00,open2300 v1.10,2013-08-04 12:09:00,
2013-08-04 07:14:00,68.7,66.3,30.09,ESE,112,0.0,-999.0,92,0.00,,,0.00,open2300 v1.10,2013-08-04 12:14:00,
2013-08-04 07:24:00,68.7,66.3,30.09,ESE,112,0.0,-999.0,92,0.00,,,0.00,open2300 v1.10,2013-08-04 12:24:00,
2013-08-04 07:30:00,68.9,66.4,30.09,ESE,112,0.0,-999.0,92,0.00,,,0.00,open2300 v1.10,2013-08-04 12:30:00,
2013-08-04 07:38:00,69.4,67.0,30.09,ESE,112,0.0,-999.0,92,0.00,,,0.00,open2300 v1.10,2013-08-04 12:38:00,
2013-08-04 07:44:00,69.6,67.2,30.09,ESE,112,0.0,-999.0,92,0.00,,,0.00,open2300 v1.10,2013-08-04 12:44:00,
2013-08-04 07:54:00,70.2,67.4,30.09,ESE,112,0.0,-999.0,91,0.00,,,0.00,open2300 v1.10,2013-08-04 12:54:00,
2013-08-04 08:01:00,70.7,68.2,30.09,ESE,112,0.0,-999.0,92,0.00,,,0.00,open2300 v1.10,2013-08-04 13:01:00,
2013-08-04 08:09:00,71.2,68.8,30.10,ESE,112,0.0,-999.0,92,0.00,,,0.00,open2300 v1.10,2013-08-04 13:09:00,
2013-08-04 08:14:00,71.8,69.3,30.10,ESE,112,0.0,-999.0,92,0.00,,,0.00,open2300 v1.10,2013-08-04 13:14:00,
2013-08-04 08:24:00,72.7,70.2,30.10,ESE,112,0.0,-999.0,92,0.00,,,0.00,open2300 v1.10,2013-08-04 13:24:00,
2013-08-04 08:30:00,73.4,70.9,30.10,ESE,112,0.0,-999.0,92,0.00,,,0.00,open2300 v1.10,2013-08-04 13:30:00,
2013-08-04 08:39:00,74.5,72.0,30.10,ESE,112,0.0,-999.0,92,0.00,,,0.00,open2300 v1.10,2013-08-04 13:39:00,
2013-08-04 08:45:00,75.0,72.3,30.10,ESE,112,0.0,-999.0,91,0.00,,,0.00,open2300 v1.10,2013-08-04 13:45:00,
2013-08-04 08:54:00,75.9,73.2,30.10,ENE,67,0.0,-999.0,91,0.00,,,0.00,open2300 v1.10,2013-08-04 13:54:00,
2013-08-04 09:01:00,76.6,73.6,30.10,ENE,67,0.0,-999.0,90,0.00,,,0.00,open2300 v1.10,2013-08-04 14:01:00,
2013-08-04 09:09:00,77.2,74.1,30.10,ENE,67,0.0,-999.0,90,0.00,,,0.00,open2300 v1.10,2013-08-04 14:09:00,
2013-08-04 09:15:00,77.5,74.1,30.10,ENE,67,0.0,-999.0,89,0.00,,,0.00,open2300 v1.10,2013-08-04 14:15:00,
2013-08-04 09:24:00,78.4,75.0,30.10,ENE,67,0.0,-999.0,89,0.00,,,0.00,open2300 v1.10,2013-08-04 14:24:00,
2013-08-04 09:30:00,78.6,74.8,30.11,ENE,67,0.0,-999.0,88,0.00,,,0.00,open2300 v1.10,2013-08-04 14:30:00,
2013-08-04 09:39:00,79.5,75.7,30.11,ENE,67,0.0,-999.0,88,0.00,,,0.00,open2300 v1.10,2013-08-04 14:39:00,
2013-08-04 09:45:00,79.9,75.3,30.11,ENE,67,0.0,-999.0,86,0.00,,,0.00,open2300 v1.10,2013-08-04 14:45:00,
2013-08-04 09:53:00,80.6,75.7,30.11,ENE,67,0.0,-999.0,85,0.00,,,0.00,open2300 v1.10,2013-08-04 14:53:00,
2013-08-04 10:01:00,81.3,76.0,30.11,SE,135,0.0,-999.0,84,0.00,,,0.00,open2300 v1.10,2013-08-04 15:01:00,
2013-08-04 10:09:00,81.3,75.7,30.11,ESE,112,0.0,-999.0,83,0.00,,,0.00,open2300 v1.10,2013-08-04 15:09:00,
2013-08-04 10:14:00,81.9,76.2,30.11,SE,135,0.0,-999.0,83,0.00,,,0.00,open2300 v1.10,2013-08-04 15:14:00,
2013-08-04 10:24:00,82.2,75.9,30.11,East,90,0.0,-999.0,81,0.00,,,0.00,open2300 v1.10,2013-08-04 15:24:00,
2013-08-04 10:30:00,82.2,75.6,30.11,East,90,0.0,-999.0,80,0.00,,,0.00,open2300 v1.10,2013-08-04 15:30:00,
2013-08-04 10:39:00,83.1,76.0,30.11,ENE,67,0.0,-999.0,79,0.00,,,0.00,open2300 v1.10,2013-08-04 15:39:00,
2013-08-04 10:44:00,84.4,76.3,30.11,NE,45,0.0,-999.0,77,0.00,,,0.00,open2300 v1.10,2013-08-04 15:44:00,
2013-08-04 10:53:00,85.3,76.9,30.11,ESE,112,0.0,-999.0,76,0.00,,,0.00,open2300 v1.10,2013-08-04 15:53:00,
2013-08-04 11:01:00,87.1,77.4,30.11,ESE,112,0.0,-999.0,73,0.00,,,0.00,open2300 v1.10,2013-08-04 16:01:00,
2013-08-04 11:09:00,88.5,77.9,30.11,ESE,112,0.0,-999.0,71,0.00,,,0.00,open2300 v1.10,2013-08-04 16:09:00,
2013-08-04 11:15:00,88.9,77.9,30.11,SE,135,0.0,-999.0,70,0.00,,,0.00,open2300 v1.10,2013-08-04 16:15:00,
2013-08-04 11:24:00,89.8,77.4,30.11,ENE,67,0.0,-999.0,67,0.00,,,0.00,open2300 v1.10,2013-08-04 16:24:00,
2013-08-04 11:30:00,90.5,77.6,30.11,ENE,67,0.0,-999.0,66,0.00,,,0.00,open2300 v1.10,2013-08-04 16:30:00,
2013-08-04 11:39:00,89.2,75.9,30.10,ENE,67,0.0,-999.0,65,0.00,,,0.00,open2300 v1.10,2013-08-04 16:39:00,
2013-08-04 11:45:00,89.4,76.1,30.10,ESE,112,0.0,-999.0,65,0.00,,,0.00,open2300 v1.10,2013-08-04 16:45:00,
2013-08-04 11:53:00,90.1,76.3,30.10,ESE,112,0.0,-999.0,64,0.00,,,0.00,open2300 v1.10,2013-08-04 16:53:00,
2013-08-04 12:01:00,91.2,76.8,30.10,ESE,112,0.0,-999.0,63,0.00,,,0.00,open2300 v1.10,2013-08-04 17:01:00,
2013-08-04 12:08:00,92.3,76.9,30.09,ESE,112,0.0,-999.0,61,0.00,,,0.00,open2300 v1.10,2013-08-04 17:08:00,
2013-08-04 12:15:00,91.2,76.3,30.09,ESE,112,0.0,-999.0,62,0.00,,,0.00,open2300 v1.10,2013-08-04 17:15:00,
2013-08-04 12:24:00,91.0,75.7,30.09,ESE,112,0.0,-999.0,61,0.00,,,0.00,open2300 v1.10,2013-08-04 17:24:00,
2013-08-04 12:30:00,90.5,75.2,30.09,East,90,0.0,-999.0,61,0.00,,,0.00,open2300 v1.10,2013-08-04 17:30:00,
2013-08-04 12:39:00,90.7,74.9,30.09,ENE,67,0.0,-999.0,60,0.00,,,0.00,open2300 v1.10,2013-08-04 17:39:00,
2013-08-04 12:45:00,91.9,76.1,30.09,East,90,0.0,-999.0,60,0.00,,,0.00,open2300 v1.10,2013-08-04 17:45:00,
2013-08-04 12:54:00,93.0,76.1,30.09,NW,315,0.0,-999.0,58,0.00,,,0.00,open2300 v1.10,2013-08-04 17:54:00,
2013-08-04 13:01:00,93.4,75.8,30.09,SSE,157,0.0,-999.0,57,0.00,,,0.00,open2300 v1.10,2013-08-04 18:01:00,
2013-08-04 13:09:00,92.1,74.1,30.08,ENE,67,0.0,-999.0,56,0.00,,,0.00,open2300 v1.10,2013-08-04 18:09:00,
2013-08-04 13:15:00,91.2,74.3,30.08,ENE,67,0.0,-999.0,58,0.00,,,0.00,open2300 v1.10,2013-08-04 18:15:00,
2013-08-04 13:24:00,92.3,75.9,30.08,ENE,67,0.0,-999.0,59,0.00,,,0.00,open2300 v1.10,2013-08-04 18:24:00,
2013-08-04 13:30:00,93.6,76.0,30.08,ENE,67,0.0,-999.0,57,0.00,,,0.00,open2300 v1.10,2013-08-04 18:30:00,
2013-08-04 13:39:00,92.7,74.6,30.08,ENE,67,0.0,-999.0,56,0.00,,,0.00,open2300 v1.10,2013-08-04 18:39:00,
2013-08-04 13:45:00,91.0,73.6,30.07,ENE,67,0.0,-999.0,57,0.00,,,0.00,open2300 v1.10,2013-08-04 18:45:00,
2013-08-04 13:54:00,91.6,75.2,30.07,ENE,67,0.0,-999.0,59,0.00,,,0.00,open2300 v1.10,2013-08-04 18:54:00,
2013-08-04 14:09:00,93.0,74.9,30.07,ENE,67,0.0,-999.0,56,0.00,,,0.00,open2300 v1.10,2013-08-04 19:09:00,
2013-08-04 14:15:00,92.1,74.6,30.07,ENE,67,0.0,-999.0,57,0.00,,,0.00,open2300 v1.10,2013-08-04 19:15:00,
2013-08-04 14:24:00,90.3,73.5,30.06,ENE,67,0.0,-999.0,58,0.00,,,0.00,open2300 v1.10,2013-08-04 19:24:00,
2013-08-04 14:29:00,89.8,74.1,30.06,ENE,67,0.0,-999.0,60,0.00,,,0.00,open2300 v1.10,2013-08-04 19:29:00,
2013-08-04 14:39:00,89.4,74.2,30.06,ENE,67,0.0,-999.0,61,0.00,,,0.00,open2300 v1.10,2013-08-04 19:39:00,
2013-08-04 14:44:00,89.2,74.5,30.06,ENE,67,0.0,-999.0,62,0.00,,,0.00,open2300 v1.10,2013-08-04 19:44:00,
2013-08-04 14:53:00,89.1,73.9,30.06,ENE,67,0.0,-999.0,61,0.00,,,0.00,open2300 v1.10,2013-08-04 19:53:00,
2013-08-04 15:09:00,88.9,73.3,30.05,ENE,67,0.0,-999.0,60,0.00,,,0.00,open2300 v1.10,2013-08-04 20:09:00,
2013-08-04 15:15:00,88.3,73.7,30.05,ENE,67,0.0,-999.0,62,0.00,,,0.00,open2300 v1.10,2013-08-04 20:15:00,
2013-08-04 15:24:00,87.6,73.5,30.04,ENE,67,0.0,-999.0,63,0.00,,,0.00,open2300 v1.10,2013-08-04 20:24:00,
2013-08-04 15:30:00,88.0,74.3,30.04,ENE,67,0.0,-999.0,64,0.00,,,0.00,open2300 v1.10,2013-08-04 20:30:00,
2013-08-04 15:39:00,88.3,74.2,30.04,ENE,67,0.0,-999.0,63,0.00,,,0.00,open2300 v1.10,2013-08-04 20:39:00,
2013-08-04 15:45:00,88.5,73.9,30.04,ENE,67,0.0,-999.0,62,0.00,,,0.00,open2300 v1.10,2013-08-04 20:45:00,
2013-08-04 15:54:00,88.2,73.5,30.04,ENE,67,0.0,-999.0,62,0.00,,,0.00,open2300 v1.10,2013-08-04 20:54:00,
2013-08-04 16:01:00,87.6,73.5,30.04,ENE,67,0.0,-999.0,63,0.00,,,0.00,open2300 v1.10,2013-08-04 21:01:00,
2013-08-04 16:09:00,86.9,73.7,30.03,ENE,67,0.0,-999.0,65,0.00,,,0.00,open2300 v1.10,2013-08-04 21:09:00,
2013-08-04 16:15:00,86.4,73.7,30.04,ENE,67,0.0,-999.0,66,0.00,,,0.00,open2300 v1.10,2013-08-04 21:15:00,
2013-08-04 16:24:00,86.4,74.1,30.03,ENE,67,0.0,-999.0,67,0.00,,,0.00,open2300 v1.10,2013-08-04 21:24:00,
2013-08-04 16:29:00,86.5,73.8,30.03,ENE,67,0.0,-999.0,66,0.00,,,0.00,open2300 v1.10,2013-08-04 21:29:00,
2013-08-04 16:39:00,86.0,73.8,30.04,ENE,67,0.0,-999.0,67,0.00,,,0.00,open2300 v1.10,2013-08-04 21:39:00,
2013-08-04 16:45:00,85.6,73.9,30.03,ENE,67,0.0,-999.0,68,0.00,,,0.00,open2300 v1.10,2013-08-04 21:45:00,
2013-08-04 16:53:00,84.9,73.7,30.03,ENE,67,0.0,-999.0,69,0.00,,,0.00,open2300 v1.10,2013-08-04 21:53:00,
2013-08-04 17:01:00,84.9,73.7,30.03,ENE,67,0.0,-999.0,69,0.00,,,0.00,open2300 v1.10,2013-08-04 22:01:00,
2013-08-04 17:09:00,84.9,73.7,30.03,ENE,67,0.0,-999.0,69,0.00,,,0.00,open2300 v1.10,2013-08-04 22:09:00,
2013-08-04 17:15:00,84.9,73.7,30.03,ENE,67,0.0,-999.0,69,0.00,,,0.00,open2300 v1.10,2013-08-04 22:15:00,
2013-08-04 17:24:00,85.1,74.3,30.03,ENE,67,0.0,-999.0,70,0.00,,,0.00,open2300 v1.10,2013-08-04 22:24:00,
2013-08-04 17:30:00,85.3,74.0,30.03,ENE,67,0.0,-999.0,69,0.00,,,0.00,open2300 v1.10,2013-08-04 22:30:00,
2013-08-04 17:39:00,85.8,74.6,30.03,ENE,67,0.0,-999.0,69,0.00,,,0.00,open2300 v1.10,2013-08-04 22:39:00,
2013-08-04 17:45:00,85.6,74.8,30.03,ENE,67,0.0,-999.0,70,0.00,,,0.00,open2300 v1.10,2013-08-04 22:45:00,
2013-08-04 17:54:00,85.6,74.4,30.03,ENE,67,0.0,-999.0,69,0.00,,,0.00,open2300 v1.10,2013-08-04 22:54:00,
2013-08-04 18:01:00,85.3,74.0,30.03,ENE,67,0.0,-999.0,69,0.00,,,0.00,open2300 v1.10,2013-08-04 23:01:00,
2013-08-04 18:08:00,84.9,73.7,30.03,ENE,67,0.0,-999.0,69,0.00,,,0.00,open2300 v1.10,2013-08-04 23:08:00,
2013-08-04 18:15:00,84.4,73.6,30.03,ENE,67,0.0,-999.0,70,0.00,,,0.00,open2300 v1.10,2013-08-04 23:15:00,
2013-08-04 18:24:00,83.8,73.4,30.03,ENE,67,0.0,-999.0,71,0.00,,,0.00,open2300 v1.10,2013-08-04 23:24:00,
2013-08-04 18:30:00,83.3,73.3,30.03,ENE,67,0.0,-999.0,72,0.00,,,0.00,open2300 v1.10,2013-08-04 23:30:00,
2013-08-04 18:39:00,82.9,72.9,30.03,ENE,67,0.0,-999.0,72,0.00,,,0.00,open2300 v1.10,2013-08-04 23:39:00,
2013-08-04 18:45:00,82.6,73.0,30.03,ENE,67,0.0,-999.0,73,0.00,,,0.00,open2300 v1.10,2013-08-04 23:45:00,
2013-08-04 18:54:00,82.2,72.7,30.04,ENE,67,0.0,-999.0,73,0.00,,,0.00,open2300 v1.10,2013-08-04 23:54:00,
2013-08-04 19:01:00,82.0,72.9,30.04,ENE,67,0.0,-999.0,74,0.00,,,0.00,open2300 v1.10,2013-08-05 00:01:00,
2013-08-04 19:09:00,81.7,72.6,30.04,ENE,67,0.0,-999.0,74,0.00,,,0.00,open2300 v1.10,2013-08-05 00:09:00,
2013-08-04 19:15:00,81.3,72.2,30.04,ENE,67,0.0,-999.0,74,0.00,,,0.00,open2300 v1.10,2013-08-05 00:15:00,
2013-08-04 19:24:00,81.1,72.1,30.04,ENE,67,0.0,-999.0,74,0.00,,,0.00,open2300 v1.10,2013-08-05 00:24:00,
2013-08-04 19:30:00,81.0,71.9,30.04,ENE,67,0.0,-999.0,74,0.00,,,0.00,open2300 v1.10,2013-08-05 00:30:00,
2013-08-04 19:39:00,80.6,71.6,30.04,ENE,67,0.0,-999.0,74,0.00,,,0.00,open2300 v1.10,2013-08-05 00:39:00,
2013-08-04 19:45:00,80.4,71.8,30.04,ENE,67,0.0,-999.0,75,0.00,,,0.00,open2300 v1.10,2013-08-05 00:45:00,
2013-08-04 19:54:00,80.2,71.6,30.04,ENE,67,0.0,-999.0,75,0.00,,,0.00,open2300 v1.10,2013-08-05 00:54:00,
2013-08-04 20:01:00,79.9,71.6,30.04,ENE,67,0.0,-999.0,76,0.00,,,0.00,open2300 v1.10,2013-08-05 01:01:00,
2013-08-04 20:09:00,79.5,71.3,30.05,ENE,67,0.0,-999.0,76,0.00,,,0.00,open2300 v1.10,2013-08-05 01:09:00,
2013-08-04 20:15:00,79.5,71.3,30.06,ENE,67,0.0,-999.0,76,0.00,,,0.00,open2300 v1.10,2013-08-05 01:15:00,
2013-08-04 20:24:00,79.2,70.9,30.05,ENE,67,0.0,-999.0,76,0.00,,,0.00,open2300 v1.10,2013-08-05 01:24:00,
2013-08-04 20:30:00,78.6,70.8,30.05,ENE,67,0.0,-999.0,77,0.00,,,0.00,open2300 v1.10,2013-08-05 01:30:00,
2013-08-04 20:39:00,77.7,70.3,30.06,ENE,67,0.0,-999.0,78,0.00,,,0.00,open2300 v1.10,2013-08-05 01:39:00,
2013-08-04 20:44:00,77.4,70.3,30.06,ENE,67,0.0,-999.0,79,0.00,,,0.00,open2300 v1.10,2013-08-05 01:44:00,
2013-08-04 20:54:00,76.8,70.2,30.06,ENE,67,0.0,-999.0,80,0.00,,,0.00,open2300 v1.10,2013-08-05 01:54:00,
2013-08-04 21:09:00,76.1,69.5,30.06,ENE,67,0.0,-999.0,80,0.00,,,0.00,open2300 v1.10,2013-08-05 02:09:00,
2013-08-04 21:14:00,75.9,69.7,30.06,ENE,67,0.0,-999.0,81,0.00,,,0.00,open2300 v1.10,2013-08-05 02:14:00,
2013-08-04 21:24:00,75.7,69.9,30.06,ENE,67,0.0,-999.0,82,0.00,,,0.00,open2300 v1.10,2013-08-05 02:24:00,
2013-08-04 21:30:00,75.7,70.2,30.06,ENE,67,0.0,-999.0,83,0.00,,,0.00,open2300 v1.10,2013-08-05 02:30:00,
2013-08-04 21:39:00,75.7,70.6,30.06,ENE,67,0.0,-999.0,84,0.00,,,0.00,open2300 v1.10,2013-08-05 02:39:00,
2013-08-04 21:45:00,75.7,70.6,30.06,ENE,67,0.0,-999.0,84,0.00,,,0.00,open2300 v1.10,2013-08-05 02:45:00,
2013-08-04 21:54:00,75.6,70.4,30.06,ENE,67,0.0,-999.0,84,0.00,,,0.00,open2300 v1.10,2013-08-05 02:54:00,
2013-08-04 22:01:00,75.4,70.6,30.06,ENE,67,0.0,-999.0,85,0.00,,,0.00,open2300 v1.10,2013-08-05 03:01:00,
2013-08-04 22:09:00,75.4,70.6,30.06,ENE,67,0.0,-999.0,85,0.00,,,0.00,open2300 v1.10,2013-08-05 03:09:00,
2013-08-04 22:15:00,75.4,70.6,30.06,ENE,67,0.0,-999.0,85,0.00,,,0.00,open2300 v1.10,2013-08-05 03:15:00,
2013-08-04 22:24:00,75.0,70.2,30.06,ENE,67,0.0,-999.0,85,0.00,,,0.00,open2300 v1.10,2013-08-05 03:24:00,
2013-08-04 22:29:00,75.0,70.6,30.06,ENE,67,0.0,-999.0,86,0.00,,,0.00,open2300 v1.10,2013-08-05 03:29:00,
2013-08-04 22:39:00,75.0,70.6,30.06,ENE,67,0.0,-999.0,86,0.00,,,0.00,open2300 v1.10,2013-08-05 03:39:00,
2013-08-04 22:45:00,75.0,70.6,30.06,ENE,67,0.0,-999.0,86,0.00,,,0.00,open2300 v1.10,2013-08-05 03:45:00,
2013-08-04 22:54:00,74.8,70.4,30.06,ENE,67,0.0,-999.0,86,0.00,,,0.00,open2300 v1.10,2013-08-05 03:54:00,
2013-08-04 23:09:00,74.8,70.4,30.06,ENE,67,0.0,-999.0,86,0.00,,,0.00,open2300 v1.10,2013-08-05 04:09:00,
2013-08-04 23:14:00,74.7,70.6,30.06,ENE,67,0.0,-999.0,87,0.00,,,0.00,open2300 v1.10,2013-08-05 04:14:00,
2013-08-04 23:23:00,74.5,70.4,30.06,ENE,67,0.0,-999.0,87,0.00,,,0.00,open2300 v1.10,2013-08-05 04:23:00,
2013-08-04 23:30:00,74.5,70.4,30.06,ENE,67,0.0,-999.0,87,0.00,,,0.00,open2300 v1.10,2013-08-05 04:30:00,
2013-08-04 23:39:00,74.5,70.4,30.05,ENE,67,0.0,-999.0,87,0.00,,,0.00,open2300 v1.10,2013-08-05 04:39:00,
2013-08-04 23:45:00,74.5,70.4,30.06,ENE,67,0.0,-999.0,87,0.00,,,0.00,open2300 v1.10,2013-08-05 04:45:00,
2013-08-04 23:54:00,74.3,70.2,30.05,ENE,67,0.0,-999.0,87,0.00,,,0.00,open2300 v1.10,2013-08-05 04:54:00,